createdAt,value
2023-04-23T00:01:39.360Z,1.10
2023-04-23T00:04:08.760Z,1.27
2023-04-23T00:06:35.653Z,1.42
2023-04-23T00:09:05.000Z,1.40
2023-04-23T00:11:31.638Z,1.10
2023-04-23T00:13:58.172Z,1.38
2023-04-23T00:16:24.944Z,1.40
2023-04-23T00:18:51.389Z,1.20
2023-04-23T00:21:17.893Z,1.30
2023-04-23T00:23:44.284Z,1.33
2023-04-23T00:26:10.700Z,1.40
2023-04-23T00:28:37.191Z,1.50
2023-04-23T00:31:03.818Z,1.30
2023-04-23T00:33:30.577Z,1.48
2023-04-23T00:35:56.924Z,1.15
2023-04-23T00:38:23.381Z,1.55
2023-04-23T00:40:50.070Z,1.25
2023-04-23T00:43:17.622Z,1.23
2023-04-23T00:45:44.549Z,1.50
2023-04-23T00:48:11.711Z,1.40
2023-04-23T00:50:38.130Z,1.40
2023-04-23T00:53:04.695Z,1.30
2023-04-23T00:55:31.415Z,1.35
2023-04-23T00:57:57.827Z,1.50
2023-04-23T01:00:24.265Z,1.52
2023-04-23T01:02:53.149Z,1.45
2023-04-23T01:05:20.508Z,1.48
2023-04-23T01:07:47.129Z,1.40
2023-04-23T01:10:14.012Z,1.70
2023-04-23T01:12:40.627Z,1.70
2023-04-23T01:15:07.785Z,1.80
2023-04-23T01:17:34.496Z,1.90
2023-04-23T01:20:01.124Z,1.98
2023-04-23T01:22:27.560Z,1.58
2023-04-23T01:24:54.495Z,1.98
2023-04-23T01:27:24.894Z,1.75
2023-04-23T01:29:52.036Z,2.05
2023-04-23T01:32:18.588Z,2.42
2023-04-23T01:34:46.486Z,2.20
2023-04-23T01:37:13.813Z,2.05
2023-04-23T01:39:40.518Z,2.30
2023-04-23T01:42:07.367Z,2.45
2023-04-23T01:44:34.005Z,3.10
2023-04-23T01:47:00.544Z,2.90
2023-04-23T01:49:27.033Z,2.75
2023-04-23T01:51:53.465Z,2.83
2023-04-23T01:54:20.002Z,3.03
2023-04-23T01:56:46.580Z,3.55
2023-04-23T01:59:12.959Z,2.97
2023-04-23T02:01:46.041Z,3.70
2023-04-23T02:04:13.369Z,3.80
2023-04-23T02:06:40.664Z,3.85
2023-04-23T02:09:07.362Z,3.70
2023-04-23T02:11:33.837Z,3.63
2023-04-23T02:14:01.050Z,4.10
2023-04-23T02:16:28.624Z,4.32
2023-04-23T02:18:55.650Z,3.97
2023-04-23T02:21:28.697Z,4.20
2023-04-23T02:23:55.483Z,4.18
2023-04-23T02:26:22.915Z,3.80
2023-04-23T02:28:49.421Z,4.75
2023-04-23T02:31:17.833Z,4.50
2023-04-23T02:33:44.289Z,4.40
2023-04-23T02:36:13.499Z,4.47
2023-04-23T02:38:42.541Z,4.18
2023-04-23T02:41:09.423Z,4.70
2023-04-23T02:43:35.855Z,4.13
2023-04-23T02:46:08.516Z,4.25
2023-04-23T02:48:39.500Z,4.40
2023-04-23T02:51:06.574Z,4.40
2023-04-23T02:53:33.012Z,4.50
2023-04-23T02:55:59.518Z,4.88
2023-04-23T02:58:26.843Z,4.35
2023-04-23T03:00:53.502Z,4.88
2023-04-23T03:03:20.425Z,4.20
2023-04-23T03:05:47.196Z,4.70
2023-04-23T03:08:13.599Z,4.03
2023-04-23T03:10:40.048Z,4.50
2023-04-23T03:13:06.529Z,4.05
2023-04-23T03:15:32.924Z,4.50
2023-04-23T03:17:59.507Z,4.45
2023-04-23T03:20:26.003Z,4.53
2023-04-23T03:22:52.434Z,4.40
2023-04-23T03:25:20.449Z,4.78
2023-04-23T03:27:47.266Z,4.85
2023-04-23T03:30:13.767Z,4.80
2023-04-23T03:32:40.523Z,4.90
2023-04-23T03:35:07.118Z,4.43
2023-04-23T03:37:33.503Z,4.82
2023-04-23T03:40:01.880Z,4.47
2023-04-23T03:42:28.265Z,5.13
2023-04-23T03:44:54.778Z,4.82
2023-04-23T03:47:21.245Z,4.80
2023-04-23T03:49:50.988Z,5.00
2023-04-23T03:52:17.480Z,4.78
2023-04-23T03:54:44.000Z,5.90
2023-04-23T03:57:13.976Z,4.50
2023-04-23T03:59:40.415Z,5.20
2023-04-23T04:02:06.918Z,5.43
2023-04-23T04:04:33.914Z,5.32
2023-04-23T04:07:00.982Z,5.35
2023-04-23T04:09:27.648Z,5.45
2023-04-23T04:11:54.251Z,4.68
2023-04-23T04:14:21.425Z,5.63
2023-04-23T04:16:48.741Z,5.55
2023-04-23T04:19:15.419Z,5.25
2023-04-23T04:21:41.795Z,5.53
2023-04-23T04:24:08.807Z,5.50
2023-04-23T04:26:35.420Z,5.20
2023-04-23T04:29:01.927Z,5.35
2023-04-23T04:31:29.008Z,5.50
2023-04-23T04:33:55.625Z,5.88
2023-04-23T04:36:23.044Z,5.20
2023-04-23T04:38:49.793Z,5.32
2023-04-23T04:41:16.446Z,5.22
2023-04-23T04:43:43.749Z,6.13
2023-04-23T04:46:12.669Z,5.78
2023-04-23T04:48:39.133Z,5.15
2023-04-23T04:51:05.615Z,5.93
2023-04-23T04:53:32.061Z,5.45
2023-04-23T04:55:58.629Z,5.97
2023-04-23T04:58:25.059Z,5.88
2023-04-23T05:00:52.335Z,5.43
2023-04-23T05:03:19.403Z,6.00
2023-04-23T05:05:46.579Z,5.38
2023-04-23T05:08:13.101Z,6.35
2023-04-23T05:10:39.597Z,6.10
2023-04-23T05:13:06.376Z,6.85
2023-04-23T05:15:32.884Z,6.00
2023-04-23T05:17:59.478Z,6.22
2023-04-23T05:20:26.049Z,6.20
2023-04-23T05:22:52.531Z,5.90
2023-04-23T05:25:19.104Z,7.03
2023-04-23T05:27:45.633Z,6.30
2023-04-23T05:30:12.233Z,5.93
2023-04-23T05:32:39.046Z,6.30
2023-04-23T05:35:06.210Z,5.95
2023-04-23T05:37:32.689Z,5.97
2023-04-23T05:39:59.473Z,6.50
2023-04-23T05:42:26.106Z,6.07
2023-04-23T05:44:52.556Z,6.82
2023-04-23T05:47:18.951Z,6.93
2023-04-23T05:49:45.359Z,6.43
2023-04-23T05:52:12.194Z,6.70
2023-04-23T05:54:38.985Z,6.78
2023-04-23T05:57:05.646Z,6.75
2023-04-23T05:59:32.225Z,6.72
2023-04-23T06:01:58.609Z,6.20
2023-04-23T06:04:25.442Z,6.72
2023-04-23T06:06:52.025Z,7.50
2023-04-23T06:09:18.460Z,7.00
2023-04-23T06:11:44.901Z,6.90
2023-04-23T06:14:11.443Z,6.95
2023-04-23T06:16:37.819Z,6.75
2023-04-23T06:19:04.212Z,7.03
2023-04-23T06:21:30.724Z,7.60
2023-04-23T06:23:57.132Z,7.60
2023-04-23T06:26:23.651Z,6.63
2023-04-23T06:28:50.176Z,6.50
2023-04-23T06:31:16.663Z,7.35
2023-04-23T06:33:43.110Z,7.30
2023-04-23T06:36:12.599Z,7.13
2023-04-23T06:38:39.075Z,7.00
2023-04-23T06:41:05.570Z,7.30
2023-04-23T06:43:32.760Z,7.15
2023-04-23T06:45:59.197Z,7.28
2023-04-23T06:48:26.288Z,7.72
2023-04-23T06:50:52.758Z,7.68
2023-04-23T06:53:19.272Z,8.10
2023-04-23T06:55:45.803Z,8.00
2023-04-23T06:58:13.095Z,8.25
2023-04-23T07:00:40.695Z,7.50
2023-04-23T07:03:07.523Z,7.18
2023-04-23T07:05:34.104Z,7.82
2023-04-23T07:08:00.540Z,7.47
2023-04-23T07:10:26.978Z,8.57
2023-04-23T07:12:53.509Z,7.85
2023-04-23T07:15:20.117Z,8.40
2023-04-23T07:17:47.022Z,8.07
2023-04-23T07:20:13.500Z,7.82
2023-04-23T07:22:40.062Z,7.53
2023-04-23T07:25:09.564Z,7.85
2023-04-23T07:27:36.069Z,8.02
2023-04-23T07:30:02.621Z,8.43
2023-04-23T07:32:29.369Z,8.10
2023-04-23T07:34:58.475Z,8.10
2023-04-23T07:37:24.866Z,8.35
2023-04-23T07:39:51.460Z,8.45
2023-04-23T07:42:18.123Z,8.55
2023-04-23T07:44:44.521Z,8.38
2023-04-23T07:47:11.513Z,8.57
2023-04-23T07:49:37.985Z,7.63
2023-04-23T07:52:04.413Z,8.88
2023-04-23T07:54:30.824Z,8.48
2023-04-23T07:56:57.464Z,7.65
2023-04-23T07:59:23.877Z,8.45
2023-04-23T08:01:50.320Z,8.30
2023-04-23T08:04:16.898Z,8.35
2023-04-23T08:06:43.498Z,8.70
2023-04-23T08:09:09.943Z,8.13
2023-04-23T08:11:36.395Z,8.45
2023-04-23T08:14:02.889Z,9.80
2023-04-23T08:16:30.413Z,9.05
2023-04-23T08:21:31.248Z,9.18
2023-04-23T08:23:57.721Z,8.70
2023-04-23T08:26:24.220Z,9.30
2023-04-23T08:28:50.766Z,9.45
2023-04-23T08:31:25.845Z,8.40
2023-04-23T08:33:53.632Z,8.88
2023-04-23T08:36:20.126Z,9.20
2023-04-23T08:38:46.521Z,9.93
2023-04-23T08:41:14.464Z,9.80
2023-04-23T08:43:46.857Z,9.55
2023-04-23T08:46:15.314Z,8.98
2023-04-23T08:48:41.994Z,10.17
2023-04-23T08:51:13.217Z,10.82
2023-04-23T08:53:43.295Z,10.10
2023-04-23T08:56:09.775Z,11.35
2023-04-23T08:58:36.315Z,10.45
2023-04-23T09:01:02.958Z,11.88
2023-04-23T09:03:29.722Z,11.88
2023-04-23T09:05:57.153Z,12.20
2023-04-23T09:08:23.629Z,10.88
2023-04-23T09:10:51.360Z,10.43
2023-04-23T09:13:18.126Z,9.85
2023-04-23T09:15:45.126Z,9.55
2023-04-23T09:18:11.655Z,9.55
2023-04-23T09:20:38.144Z,9.35
2023-04-23T09:23:08.245Z,9.60
2023-04-23T09:25:34.992Z,9.18
2023-04-23T09:28:01.750Z,10.07
2023-04-23T09:30:28.209Z,10.50
2023-04-23T09:32:55.151Z,10.13
2023-04-23T09:35:22.109Z,9.98
2023-04-23T09:37:49.739Z,9.30
2023-04-23T09:40:20.451Z,9.63
2023-04-23T09:42:47.793Z,9.40
2023-04-23T09:45:14.237Z,9.63
2023-04-23T09:47:42.298Z,9.65
2023-04-23T09:50:12.154Z,10.05
2023-04-23T09:52:39.308Z,10.38
2023-04-23T09:55:06.125Z,10.20
2023-04-23T09:57:36.373Z,10.02
2023-04-23T10:02:41.137Z,10.50
2023-04-23T10:05:24.357Z,10.38
2023-04-23T10:07:52.520Z,10.55
2023-04-23T10:10:19.848Z,10.70
2023-04-23T10:12:54.974Z,10.70
2023-04-23T10:15:23.182Z,10.98
2023-04-23T10:17:51.290Z,10.40
2023-04-23T10:20:18.174Z,11.38
2023-04-23T10:22:45.794Z,10.48
2023-04-23T10:25:12.527Z,10.15
2023-04-23T10:27:52.013Z,10.55
2023-04-23T10:30:20.462Z,10.48
2023-04-23T10:32:48.752Z,10.95
2023-04-23T10:35:15.297Z,11.10
2023-04-23T10:37:42.133Z,10.10
2023-04-23T10:40:22.169Z,10.30
2023-04-23T10:42:49.666Z,10.52
2023-04-23T10:45:24.079Z,9.70
2023-04-23T10:47:53.014Z,9.00
2023-04-23T10:50:23.112Z,8.57
2023-04-23T10:52:53.466Z,7.32
2023-04-23T10:55:21.649Z,6.93
2023-04-23T10:58:01.980Z,6.45
2023-04-23T11:00:29.963Z,6.28
2023-04-23T11:02:56.554Z,6.22
2023-04-23T11:05:25.637Z,7.00
2023-04-23T11:10:51.197Z,5.85
2023-04-23T11:13:22.589Z,6.88
2023-04-23T11:15:49.050Z,6.05
2023-04-23T11:18:15.569Z,5.15
2023-04-23T11:20:42.352Z,5.15
2023-04-23T11:23:28.825Z,4.03
2023-04-23T11:25:55.298Z,3.80
2023-04-23T11:28:21.767Z,3.67
2023-04-23T11:30:50.696Z,3.95
2023-04-23T11:33:17.936Z,3.90
2023-04-23T11:35:44.829Z,3.83
2023-04-23T11:38:11.338Z,3.90
2023-04-23T11:40:40.368Z,3.25
2023-04-23T11:43:09.556Z,3.60
2023-04-23T11:45:36.546Z,3.60
2023-04-23T11:48:03.059Z,2.97
2023-04-23T11:50:30.774Z,2.83
2023-04-23T11:52:57.482Z,3.35
2023-04-23T11:55:24.004Z,3.47
2023-04-23T11:57:51.771Z,2.88
2023-04-23T12:00:21.959Z,3.30
2023-04-23T12:02:56.073Z,3.35
2023-04-23T12:05:23.695Z,3.20
2023-04-23T12:07:51.343Z,2.80
2023-04-23T12:10:18.690Z,2.92
2023-04-23T12:12:48.789Z,2.95
2023-04-23T12:15:15.180Z,3.20
2023-04-23T12:17:41.840Z,2.50
2023-04-23T12:20:14.120Z,3.05
2023-04-23T12:22:40.577Z,2.90
2023-04-23T12:25:08.386Z,3.20
2023-04-23T12:27:38.977Z,3.22
2023-04-23T12:30:07.378Z,3.20
2023-04-23T12:32:34.605Z,2.65
2023-04-23T12:35:01.178Z,3.15
2023-04-23T12:37:29.675Z,3.28
2023-04-23T12:39:59.229Z,3.10
2023-04-23T12:42:26.143Z,3.10
2023-04-23T12:44:52.849Z,2.95
2023-04-23T12:47:21.995Z,3.15
2023-04-23T12:49:53.221Z,2.90
2023-04-23T12:52:20.178Z,2.97
2023-04-23T12:54:46.693Z,2.72
2023-04-23T12:57:14.251Z,3.00
2023-04-23T12:59:40.948Z,2.97
2023-04-23T13:02:07.804Z,2.92
2023-04-23T13:04:35.717Z,3.15
2023-04-23T13:07:02.402Z,2.67
2023-04-23T13:09:29.327Z,2.88
2023-04-23T13:11:55.959Z,3.35
2023-04-23T13:14:22.414Z,3.13
2023-04-23T13:16:49.158Z,3.20
2023-04-23T13:19:17.424Z,3.10
2023-04-23T13:21:44.124Z,3.38
2023-04-23T13:24:10.948Z,3.30
2023-04-23T13:26:37.471Z,3.47
2023-04-23T13:29:03.967Z,3.00
2023-04-23T13:31:31.409Z,3.28
2023-04-23T13:33:58.123Z,3.28
2023-04-23T13:36:25.022Z,3.40
2023-04-23T13:38:51.662Z,3.53
2023-04-23T13:41:18.406Z,3.75
2023-04-23T13:43:45.079Z,3.10
2023-04-23T13:46:11.503Z,3.20
2023-04-23T13:48:38.031Z,3.25
2023-04-23T13:51:10.902Z,3.20
2023-04-23T13:53:43.828Z,4.07
2023-04-23T13:56:10.336Z,3.67
2023-04-23T13:58:36.875Z,3.55
2023-04-23T14:01:04.456Z,3.83
2023-04-23T14:03:33.092Z,3.63
2023-04-23T14:05:59.674Z,3.63
2023-04-23T14:08:26.145Z,3.35
2023-04-23T14:10:52.653Z,4.00
2023-04-23T14:13:19.119Z,4.18
2023-04-23T14:15:45.784Z,4.18
2023-04-23T14:18:12.143Z,4.78
2023-04-23T14:20:38.592Z,5.22
2023-04-23T14:23:31.010Z,4.90
2023-04-23T14:26:04.029Z,5.00
2023-04-23T14:28:34.291Z,4.68
2023-04-23T14:31:01.413Z,5.47
2023-04-23T14:33:28.180Z,5.03
2023-04-23T14:35:54.761Z,4.28
2023-04-23T14:38:21.270Z,4.43
2023-04-23T14:40:47.796Z,4.30
2023-04-23T14:43:15.891Z,4.53
2023-04-23T14:45:42.817Z,4.22
2023-04-23T14:48:09.408Z,5.03
2023-04-23T14:50:35.851Z,4.60
2023-04-23T14:53:06.885Z,4.30
2023-04-23T14:55:33.545Z,4.00
2023-04-23T14:58:00.125Z,4.03
2023-04-23T15:00:26.501Z,4.20
2023-04-23T15:02:53.171Z,3.60
2023-04-23T15:05:20.373Z,3.63
2023-04-23T15:07:46.868Z,4.20
2023-04-23T15:10:13.372Z,4.55
2023-04-23T15:12:39.781Z,4.32
2023-04-23T15:15:06.773Z,3.60
2023-04-23T15:17:33.239Z,3.70
2023-04-23T15:20:00.329Z,3.60
2023-04-23T15:22:26.725Z,3.80
2023-04-23T15:24:53.157Z,3.90
2023-04-23T15:27:19.751Z,3.92
2023-04-23T15:29:46.204Z,3.80
2023-04-23T15:32:12.672Z,4.32
2023-04-23T15:34:39.174Z,3.63
2023-04-23T15:37:06.008Z,4.15
2023-04-23T15:39:32.410Z,4.13
2023-04-23T15:41:59.145Z,4.80
2023-04-23T15:44:26.232Z,4.40
2023-04-23T15:46:52.668Z,4.07
2023-04-23T15:49:19.149Z,4.60
2023-04-23T15:51:45.647Z,4.68
2023-04-23T15:54:12.015Z,4.85
2023-04-23T15:56:38.468Z,4.97
2023-04-23T15:59:05.308Z,4.95
2023-04-23T16:01:31.883Z,4.88
2023-04-23T16:06:28.616Z,4.60
2023-04-23T16:08:55.014Z,4.70
2023-04-23T16:11:21.714Z,4.90
2023-04-23T16:13:48.159Z,5.13
2023-04-23T16:16:14.547Z,4.53
2023-04-23T16:18:41.564Z,5.00
2023-04-23T16:21:07.947Z,4.88
2023-04-23T16:23:34.367Z,4.57
2023-04-23T16:26:01.893Z,5.10
2023-04-23T16:28:28.313Z,4.93
2023-04-23T16:30:54.802Z,4.68
2023-04-23T16:33:23.823Z,5.20
2023-04-23T16:35:50.341Z,4.68
2023-04-23T16:38:16.679Z,5.00
2023-04-23T16:40:45.808Z,4.97
2023-04-23T16:43:12.244Z,4.93
2023-04-23T16:45:39.820Z,5.35
2023-04-23T16:48:07.533Z,4.93
2023-04-23T16:50:33.951Z,5.13
2023-04-23T16:53:01.424Z,4.97
2023-04-23T16:55:27.933Z,4.70
2023-04-23T16:57:54.385Z,5.00
2023-04-23T17:00:20.766Z,5.15
2023-04-23T17:02:47.305Z,5.53
2023-04-23T17:05:13.966Z,5.55
2023-04-23T17:07:43.960Z,5.30
2023-04-23T17:10:10.897Z,5.10
2023-04-23T17:12:37.436Z,4.80
2023-04-23T17:15:04.056Z,5.28
2023-04-23T17:17:30.507Z,4.85
2023-04-23T17:19:56.976Z,4.93
2023-04-23T17:22:23.500Z,5.18
2023-04-23T17:24:49.999Z,5.22
2023-04-23T17:27:16.592Z,5.43
2023-04-23T17:29:43.129Z,5.45
2023-04-23T17:32:09.845Z,5.57
2023-04-23T17:34:36.421Z,5.38
2023-04-23T17:37:02.981Z,5.72
2023-04-23T17:39:29.641Z,5.10
2023-04-23T17:41:57.675Z,5.57
2023-04-23T17:44:24.420Z,5.70
2023-04-23T17:46:52.358Z,5.82
2023-04-23T17:49:19.961Z,5.65
2023-04-23T17:51:46.380Z,5.82
2023-04-23T17:54:12.846Z,6.07
2023-04-23T17:56:39.757Z,6.90
2023-04-23T17:59:06.299Z,7.22
2023-04-23T18:01:33.078Z,6.72
2023-04-23T18:03:59.967Z,6.15
2023-04-23T18:06:27.090Z,6.43
2023-04-23T18:08:53.553Z,6.63
2023-04-23T18:11:20.044Z,6.65
2023-04-23T18:13:49.238Z,6.90
2023-04-23T18:16:15.998Z,6.53
2023-04-23T18:18:42.468Z,6.25
2023-04-23T18:21:09.251Z,5.45
2023-04-23T18:23:36.097Z,6.20
2023-04-23T18:26:02.688Z,5.72
2023-04-23T18:28:29.333Z,6.22
2023-04-23T18:31:02.190Z,4.97
2023-04-23T18:33:35.455Z,5.47
2023-04-23T18:36:04.584Z,4.93
2023-04-23T18:38:43.275Z,5.95
2023-04-23T18:41:09.688Z,5.78
2023-04-23T18:43:36.314Z,6.05
2023-04-23T18:46:03.085Z,5.45
2023-04-23T18:48:35.672Z,5.72
2023-04-23T18:51:17.457Z,5.05
2023-04-23T18:53:44.018Z,6.28
2023-04-23T18:56:10.537Z,5.20
2023-04-23T18:58:36.935Z,5.78
2023-04-23T19:01:06.183Z,5.68
2023-04-23T19:03:32.834Z,5.18
2023-04-23T19:05:59.524Z,6.10
2023-04-23T19:08:28.955Z,5.63
2023-04-23T19:13:23.003Z,6.07
2023-04-23T19:15:52.730Z,6.90
2023-04-23T19:18:19.534Z,5.68
2023-04-23T19:20:46.111Z,6.22
2023-04-23T19:23:12.597Z,6.28
2023-04-23T19:25:39.084Z,5.78
2023-04-23T19:28:08.857Z,5.78
2023-04-23T19:30:35.342Z,5.80
2023-04-23T19:33:01.902Z,5.93
2023-04-23T19:35:28.473Z,6.03
2023-04-23T19:37:55.004Z,6.03
2023-04-23T19:40:21.456Z,5.97
2023-04-23T19:42:48.651Z,5.78
2023-04-23T19:45:17.745Z,6.07
2023-04-23T19:47:44.473Z,6.00
2023-04-23T19:50:11.741Z,6.20
2023-04-23T19:52:38.209Z,6.38
2023-04-23T19:55:05.136Z,5.68
2023-04-23T19:57:31.641Z,6.00
2023-04-23T19:59:58.105Z,5.80
2023-04-23T20:02:24.610Z,6.57
2023-04-23T20:04:51.301Z,6.07
2023-04-23T20:07:17.821Z,5.85
2023-04-23T20:09:44.618Z,7.25
2023-04-23T20:12:11.270Z,7.13
2023-04-23T20:14:37.735Z,6.05
2023-04-23T20:17:04.474Z,5.78
2023-04-23T20:19:31.439Z,5.72
2023-04-23T20:21:57.907Z,6.72
2023-04-23T20:24:24.371Z,6.55
2023-04-23T20:26:50.967Z,6.55
2023-04-23T20:29:17.488Z,6.05
2023-04-23T20:31:48.861Z,5.40
2023-04-23T20:34:16.357Z,6.47
2023-04-23T20:36:43.090Z,6.80
2023-04-23T20:39:10.888Z,6.68
2023-04-23T20:41:37.371Z,6.93
2023-04-23T20:44:05.274Z,7.82
2023-04-23T20:46:32.538Z,7.45
2023-04-23T20:49:00.780Z,7.18
2023-04-23T20:51:33.090Z,7.50
2023-04-23T20:53:59.741Z,7.43
2023-04-23T20:56:26.377Z,7.40
2023-04-23T20:58:52.919Z,7.45
2023-04-23T21:01:19.885Z,9.00
2023-04-23T21:03:46.478Z,8.50
2023-04-23T21:06:13.048Z,8.13
2023-04-23T21:08:41.332Z,8.60
2023-04-23T21:11:11.192Z,7.95
2023-04-23T21:13:37.976Z,7.78
2023-04-23T21:16:04.501Z,8.90
2023-04-23T21:18:30.958Z,9.20
2023-04-23T21:20:57.457Z,8.60
2023-04-23T21:23:23.929Z,9.02
2023-04-23T21:25:50.947Z,8.07
2023-04-23T21:28:17.410Z,8.52
2023-04-23T21:30:43.795Z,9.68
2023-04-23T21:33:10.299Z,8.27
2023-04-23T21:35:36.845Z,9.00
2023-04-23T21:38:03.282Z,9.05
2023-04-23T21:40:29.792Z,9.68
2023-04-23T21:42:56.310Z,9.20
2023-04-23T21:45:22.684Z,9.75
2023-04-23T21:47:49.316Z,10.02
2023-04-23T21:50:17.468Z,9.80
2023-04-23T21:52:44.020Z,9.48
2023-04-23T21:55:12.231Z,9.23
2023-04-23T21:57:39.053Z,9.48
2023-04-23T22:00:06.782Z,9.80
2023-04-23T22:02:33.306Z,9.13
2023-04-23T22:04:59.907Z,10.00
2023-04-23T22:07:26.872Z,9.95
2023-04-23T22:09:53.412Z,10.43
2023-04-23T22:12:19.800Z,9.77
2023-04-23T22:14:46.211Z,10.50
2023-04-23T22:17:12.707Z,10.70
2023-04-23T22:19:39.189Z,9.63
2023-04-23T22:22:06.379Z,10.07
2023-04-23T22:24:32.746Z,9.48
2023-04-23T22:26:59.249Z,10.57
2023-04-23T22:29:25.703Z,10.85
2023-04-23T22:31:52.099Z,11.23
2023-04-23T22:34:19.399Z,11.13
2023-04-23T22:36:45.828Z,10.70
2023-04-23T22:39:12.905Z,10.85
2023-04-23T22:41:40.406Z,11.05
2023-04-23T22:44:07.017Z,12.13
2023-04-23T22:46:33.557Z,10.80
2023-04-23T22:49:01.375Z,11.15
2023-04-23T22:51:27.823Z,11.25
2023-04-23T22:53:54.208Z,12.40
2023-04-23T22:56:20.928Z,11.38
2023-04-23T22:58:47.341Z,11.18
2023-04-23T23:01:13.793Z,11.05
2023-04-23T23:03:40.348Z,11.18
2023-04-23T23:06:06.986Z,11.63
2023-04-23T23:08:33.424Z,12.13
2023-04-23T23:10:59.870Z,11.00
2023-04-23T23:13:26.305Z,10.60
2023-04-23T23:15:52.823Z,10.63
2023-04-23T23:18:19.335Z,11.73
2023-04-23T23:20:45.833Z,11.05
2023-04-23T23:23:12.263Z,12.07
2023-04-23T23:25:38.664Z,10.98
2023-04-23T23:28:05.442Z,10.85
2023-04-23T23:30:32.017Z,10.85
2023-04-23T23:32:58.839Z,10.73
2023-04-23T23:35:25.516Z,9.48
2023-04-23T23:37:52.384Z,10.40
2023-04-23T23:40:18.960Z,10.77
2023-04-23T23:42:45.397Z,9.70
2023-04-23T23:45:11.818Z,9.82
2023-04-23T23:47:38.298Z,9.85
2023-04-23T23:50:05.792Z,10.27
2023-04-23T23:52:32.349Z,10.18
2023-04-23T23:54:58.883Z,10.27
2023-04-23T23:57:25.373Z,9.77
2023-04-23T23:59:51.875Z,9.75
